Time;durP1;ratioP1;P1;durP2;ratioP2;P2;SDS_P1;SDS_P2;PMS_P1;PMS_P2;Temp;Humidity;BMP_temperature;BMP_pressure;BME280_temperature;BME280_humidity;BME280_pressure;Samples;Min_cycle;Max_cycle;Signal;HPM_P1;HPM_P2
2023/09/25 00:01:43;;;;;;;2.40;1.80;;;13.30;95.60;;;;;;5046763;28;20495;-73
2023/09/25 00:04:10;;;;;;;2.70;1.80;;;13.30;95.60;;;;;;5055047;28;20417;-73
2023/09/25 00:06:36;;;;;;;2.60;1.90;;;13.40;95.90;;;;;;5052240;28;20802;-73
2023/09/25 00:09:05;;;;;;;3.33;1.95;;;13.30;95.80;;;;;;5053865;28;20505;-73
2023/09/25 00:11:32;;;;;;;3.25;1.70;;;13.30;95.80;;;;;;5053105;28;20901;-73
2023/09/25 00:13:59;;;;;;;2.30;1.65;;;13.30;95.80;;;;;;5047154;28;20777;-73
2023/09/25 00:16:25;;;;;;;2.00;1.70;;;13.20;95.90;;;;;;5054653;28;20446;-73
2023/09/25 00:18:52;;;;;;;2.10;1.50;;;13.20;96.20;;;;;;5055256;28;20784;-73
2023/09/25 00:21:19;;;;;;;2.00;1.50;;;13.20;96.20;;;;;;5052456;28;20765;-73
2023/09/25 00:23:46;;;;;;;2.30;1.80;;;13.20;96.50;;;;;;5057179;28;20422;-73
2023/09/25 00:26:14;;;;;;;2.92;2.40;;;13.10;96.50;;;;;;5046540;28;20444;-73
2023/09/25 00:28:41;;;;;;;2.23;1.80;;;13.10;96.70;;;;;;5050276;28;20441;-73
2023/09/25 00:31:08;;;;;;;2.05;1.60;;;13.10;96.70;;;;;;5039733;28;20498;-73
2023/09/25 00:33:35;;;;;;;2.40;1.80;;;13.10;96.80;;;;;;5049480;28;20490;-73
2023/09/25 00:36:02;;;;;;;2.70;1.60;;;13.00;96.90;;;;;;5043901;28;20931;-73
2023/09/25 00:38:29;;;;;;;2.10;1.80;;;13.00;96.80;;;;;;5043243;28;20419;-73
2023/09/25 00:40:55;;;;;;;2.60;1.83;;;13.00;97.00;;;;;;5040979;28;20429;-73
2023/09/25 00:43:23;;;;;;;3.60;1.70;;;13.00;96.90;;;;;;5046032;28;20444;-73
2023/09/25 00:45:50;;;;;;;3.40;1.90;;;13.00;97.10;;;;;;5042409;28;20428;-73
2023/09/25 00:48:26;;;;;;;3.87;1.70;;;13.00;97.10;;;;;;5050225;28;20410;-73
2023/09/25 00:50:53;;;;;;;3.65;1.80;;;13.00;96.90;;;;;;5049687;28;20427;-73
2023/09/25 00:53:20;;;;;;;3.03;1.85;;;13.00;97.20;;;;;;5048253;28;20454;-73
2023/09/25 00:55:48;;;;;;;2.65;2.00;;;13.00;97.20;;;;;;5052394;28;20511;-73
2023/09/25 00:58:15;;;;;;;2.65;1.80;;;13.00;97.30;;;;;;5049129;28;20481;-73
2023/09/25 01:00:44;;;;;;;3.50;2.20;;;13.00;97.20;;;;;;5046946;28;21089;-73
2023/09/25 01:03:11;;;;;;;2.53;1.73;;;13.00;97.30;;;;;;5042103;28;20477;-73
2023/09/25 01:05:38;;;;;;;2.60;2.05;;;12.90;97.30;;;;;;5047216;28;20445;-73
2023/09/25 01:08:06;;;;;;;2.90;1.70;;;12.90;97.30;;;;;;5052263;28;20448;-71
2023/09/25 01:10:33;;;;;;;2.42;1.67;;;12.90;97.20;;;;;;5052433;28;20494;-73
2023/09/25 01:13:01;;;;;;;2.30;1.70;;;12.90;97.30;;;;;;5055161;28;20423;-72
2023/09/25 01:15:28;;;;;;;4.28;2.03;;;12.90;97.30;;;;;;5046197;28;20437;-73
2023/09/25 01:17:56;;;;;;;2.60;1.90;;;12.90;97.40;;;;;;5043172;28;20439;-73
2023/09/25 01:20:24;;;;;;;3.40;1.90;;;12.90;97.60;;;;;;5038991;28;20459;-73
2023/09/25 01:22:52;;;;;;;2.33;1.90;;;12.90;97.50;;;;;;5050734;28;20419;-73
2023/09/25 01:25:21;;;;;;;3.15;1.90;;;12.90;97.30;;;;;;5043302;28;20905;-73
2023/09/25 01:27:48;;;;;;;2.47;1.88;;;12.80;97.50;;;;;;5044914;28;20439;-73
2023/09/25 01:30:16;;;;;;;3.40;1.80;;;12.80;97.60;;;;;;5046655;28;20756;-73
2023/09/25 01:32:44;;;;;;;3.40;1.80;;;12.80;97.50;;;;;;5048112;28;20990;-73
2023/09/25 01:35:14;;;;;;;2.10;1.90;;;12.80;97.50;;;;;;5041254;28;20461;-73
2023/09/25 01:37:41;;;;;;;2.30;1.70;;;12.80;97.60;;;;;;5046325;28;20482;-73
2023/09/25 01:40:15;;;;;;;3.70;1.90;;;12.80;97.80;;;;;;5042316;28;20430;-73
2023/09/25 01:42:42;;;;;;;3.40;2.00;;;12.80;97.70;;;;;;5050755;28;20485;-73
2023/09/25 01:45:10;;;;;;;2.33;1.90;;;12.70;97.80;;;;;;5040494;28;20440;-73
2023/09/25 01:47:37;;;;;;;2.70;1.80;;;12.70;97.90;;;;;;5053632;28;20416;-73
2023/09/25 01:50:04;;;;;;;2.67;1.80;;;12.70;97.90;;;;;;5052466;28;20483;-73
2023/09/25 01:52:31;;;;;;;2.58;1.90;;;12.70;98.00;;;;;;5047005;28;20448;-72
2023/09/25 01:54:58;;;;;;;3.17;1.80;;;12.70;98.00;;;;;;5054772;28;20999;-73
2023/09/25 01:57:26;;;;;;;3.30;2.15;;;12.70;98.10;;;;;;5054682;28;20428;-73
2023/09/25 01:59:53;;;;;;;2.88;1.88;;;12.60;98.20;;;;;;5058374;28;20738;-73
2023/09/25 02:02:20;;;;;;;2.33;1.75;;;12.60;98.30;;;;;;5045061;28;20440;-73
2023/09/25 02:04:47;;;;;;;4.10;1.97;;;12.60;98.40;;;;;;5050193;28;20412;-73
2023/09/25 02:07:15;;;;;;;3.30;1.90;;;12.60;98.50;;;;;;5046581;28;20536;-73
2023/09/25 02:09:42;;;;;;;2.30;1.85;;;12.60;98.50;;;;;;5049161;28;20450;-72
2023/09/25 02:12:08;;;;;;;3.00;1.90;;;12.60;98.60;;;;;;5051032;28;20425;-73
2023/09/25 02:14:37;;;;;;;2.38;1.90;;;12.60;98.80;;;;;;5052006;28;20433;-73
2023/09/25 02:17:03;;;;;;;2.20;1.70;;;12.60;98.80;;;;;;5051189;28;20906;-73
2023/09/25 02:19:30;;;;;;;3.55;1.80;;;12.50;99.00;;;;;;5046547;28;20417;-73
2023/09/25 02:21:57;;;;;;;2.85;1.88;;;12.50;99.20;;;;;;5050566;28;20834;-73
2023/09/25 02:24:23;;;;;;;2.20;2.00;;;12.60;99.30;;;;;;5046048;28;20481;-73
2023/09/25 02:26:50;;;;;;;2.60;1.90;;;12.50;99.30;;;;;;5059974;28;20421;-73
2023/09/25 02:29:17;;;;;;;2.80;1.80;;;12.50;99.40;;;;;;5058893;28;20422;-72
2023/09/25 02:31:45;;;;;;;2.20;2.00;;;12.50;99.60;;;;;;5046638;28;20618;-72
2023/09/25 02:34:14;;;;;;;2.47;1.75;;;12.50;99.50;;;;;;5046981;28;20448;-72
2023/09/25 02:36:41;;;;;;;3.60;2.00;;;12.50;99.60;;;;;;5046533;28;21007;-72
2023/09/25 02:39:08;;;;;;;3.70;1.90;;;12.50;99.50;;;;;;5047329;28;20433;-73
2023/09/25 02:41:35;;;;;;;2.10;1.90;;;12.50;99.60;;;;;;5053498;28;20443;-72
2023/09/25 02:44:02;;;;;;;4.10;1.90;;;12.50;99.80;;;;;;5060403;28;20419;-73
2023/09/25 02:46:28;;;;;;;2.00;1.70;;;12.50;99.60;;;;;;5052432;28;20513;-73
2023/09/25 02:48:57;;;;;;;2.63;1.75;;;12.50;99.50;;;;;;5050702;28;20415;-72
2023/09/25 02:51:23;;;;;;;2.90;2.00;;;12.50;99.40;;;;;;5049825;28;20468;-73
2023/09/25 02:53:51;;;;;;;2.30;1.60;;;12.50;99.60;;;;;;5065090;28;20424;-73
2023/09/25 02:56:18;;;;;;;3.13;1.77;;;12.40;99.60;;;;;;5047132;28;20440;-73
2023/09/25 02:58:45;;;;;;;2.53;1.60;;;12.40;99.50;;;;;;5061346;28;20410;-72
2023/09/25 03:01:12;;;;;;;3.10;1.90;;;12.40;99.40;;;;;;5050305;28;20508;-73
2023/09/25 03:03:40;;;;;;;2.47;1.63;;;12.40;99.40;;;;;;5059872;28;20426;-72
2023/09/25 03:06:08;;;;;;;3.00;1.95;;;12.40;99.70;;;;;;5040760;28;20426;-73
2023/09/25 03:08:35;;;;;;;2.30;1.80;;;12.40;99.40;;;;;;5049103;28;20413;-73
2023/09/25 03:11:01;;;;;;;2.70;1.90;;;12.40;99.40;;;;;;5052210;28;20907;-72
2023/09/25 03:13:28;;;;;;;2.20;1.80;;;12.40;99.30;;;;;;5051677;28;20417;-73
2023/09/25 03:15:55;;;;;;;2.95;1.90;;;12.40;99.50;;;;;;5047427;28;20454;-72
2023/09/25 03:18:22;;;;;;;1.90;1.70;;;12.40;99.80;;;;;;5051742;28;20475;-73
2023/09/25 03:20:48;;;;;;;2.80;1.70;;;12.40;99.90;;;;;;5043379;28;20538;-73
2023/09/25 03:23:16;;;;;;;2.50;2.00;;;12.40;99.90;;;;;;5054057;28;20486;-73
2023/09/25 03:25:44;;;;;;;2.70;1.90;;;12.40;99.90;;;;;;5043237;28;20501;-72
2023/09/25 03:28:11;;;;;;;2.97;2.20;;;12.40;99.90;;;;;;5052262;28;20407;-73
2023/09/25 03:30:38;;;;;;;3.90;2.20;;;12.40;99.90;;;;;;5047621;28;20502;-72
2023/09/25 03:33:05;;;;;;;2.10;1.90;;;12.30;99.90;;;;;;5050149;28;20770;-73
2023/09/25 03:35:31;;;;;;;2.53;1.92;;;12.30;99.90;;;;;;5045235;28;20440;-73
2023/09/25 03:37:58;;;;;;;2.40;2.20;;;12.30;99.90;;;;;;5051547;28;20408;-72
2023/09/25 03:40:26;;;;;;;2.92;1.80;;;12.30;99.90;;;;;;5052264;28;20474;-73
2023/09/25 03:42:53;;;;;;;2.50;1.90;;;12.30;99.90;;;;;;5058668;28;20469;-72
2023/09/25 03:45:20;;;;;;;2.67;2.20;;;12.30;99.90;;;;;;5048522;28;20815;-73
2023/09/25 03:47:48;;;;;;;2.70;2.10;;;12.20;99.90;;;;;;5048070;28;20417;-72
2023/09/25 03:50:14;;;;;;;2.63;1.90;;;12.20;99.90;;;;;;5058198;28;20711;-73
2023/09/25 03:52:42;;;;;;;2.50;2.00;;;12.20;99.90;;;;;;5054590;28;20928;-72
2023/09/25 03:55:09;;;;;;;4.20;3.45;;;12.20;99.90;;;;;;5049080;28;20464;-73
2023/09/25 03:57:38;;;;;;;3.23;2.20;;;12.20;99.90;;;;;;5047036;28;20466;-73
2023/09/25 04:00:06;;;;;;;3.35;2.08;;;12.20;99.90;;;;;;5058836;28;20458;-73
2023/09/25 04:02:33;;;;;;;2.20;2.00;;;12.20;99.90;;;;;;5050552;28;20899;-73
2023/09/25 04:05:00;;;;;;;2.50;1.70;;;12.20;99.90;;;;;;5042801;28;20425;-73
2023/09/25 04:07:26;;;;;;;3.15;1.92;;;12.20;99.90;;;;;;5050268;28;20441;-73
2023/09/25 04:09:54;;;;;;;2.30;1.80;;;12.20;99.90;;;;;;5054312;28;20416;-73
2023/09/25 04:12:21;;;;;;;2.10;1.90;;;12.20;99.90;;;;;;5042366;28;20494;-72
2023/09/25 04:14:49;;;;;;;3.17;2.35;;;12.20;99.90;;;;;;5087969;22;20443;-69
2023/09/25 04:17:16;;;;;;;2.30;1.90;;;12.20;99.90;;;;;;5083927;28;20426;-69
2023/09/25 04:19:44;;;;;;;5.90;2.10;;;12.20;99.90;;;;;;5086179;28;20545;-70
2023/09/25 04:22:11;;;;;;;2.60;2.10;;;12.20;99.90;;;;;;5089149;28;20494;-70
2023/09/25 04:24:38;;;;;;;3.47;1.90;;;12.20;99.90;;;;;;5073786;28;20429;-69
2023/09/25 04:27:04;;;;;;;2.20;2.00;;;12.20;99.90;;;;;;5066211;28;20423;-68
2023/09/25 04:29:31;;;;;;;2.47;1.95;;;12.20;99.90;;;;;;5054365;28;20437;-70
2023/09/25 04:31:59;;;;;;;5.32;2.30;;;12.20;99.90;;;;;;5054953;28;20433;-70
2023/09/25 04:34:26;;;;;;;4.00;2.00;;;12.10;99.90;;;;;;5055866;28;20431;-70
2023/09/25 04:36:53;;;;;;;2.50;1.90;;;12.10;99.90;;;;;;5054179;28;20962;-72
2023/09/25 04:39:20;;;;;;;3.30;1.97;;;12.10;99.90;;;;;;5061372;28;20439;-70
2023/09/25 04:41:47;;;;;;;2.47;2.17;;;12.10;99.90;;;;;;5062041;28;20432;-67
2023/09/25 04:44:14;;;;;;;2.30;2.10;;;12.10;99.90;;;;;;5073957;28;20491;-71
2023/09/25 04:46:40;;;;;;;2.23;2.00;;;12.10;99.90;;;;;;5055550;28;20427;-72
2023/09/25 04:49:09;;;;;;;3.63;2.30;;;12.10;99.90;;;;;;5068358;28;20507;-72
2023/09/25 04:51:36;;;;;;;2.30;2.10;;;12.10;99.90;;;;;;5059286;28;20463;-71
2023/09/25 04:54:03;;;;;;;2.50;2.20;;;12.10;99.90;;;;;;5059252;28;20423;-70
2023/09/25 04:56:29;;;;;;;3.50;2.42;;;12.10;99.90;;;;;;5058289;28;20431;-72
2023/09/25 04:58:58;;;;;;;5.18;2.70;;;12.00;99.90;;;;;;5066575;28;20439;-70
2023/09/25 05:01:25;;;;;;;2.78;2.40;;;12.10;99.90;;;;;;5056005;28;20435;-71
2023/09/25 05:03:51;;;;;;;3.95;2.83;;;12.00;99.90;;;;;;5058649;28;20439;-72
2023/09/25 05:06:20;;;;;;;3.60;2.70;;;12.00;99.90;;;;;;5068844;28;20428;-70
2023/09/25 05:08:47;;;;;;;4.10;2.83;;;12.00;99.90;;;;;;5065435;28;20795;-71
2023/09/25 05:11:14;;;;;;;3.17;2.58;;;12.00;99.90;;;;;;5062561;28;20858;-71
2023/09/25 05:13:40;;;;;;;3.55;2.50;;;12.00;99.90;;;;;;5061875;28;20443;-71
2023/09/25 05:16:07;;;;;;;3.95;2.65;;;12.00;99.90;;;;;;5066237;28;20415;-71
2023/09/25 05:18:34;;;;;;;3.47;2.60;;;12.00;99.90;;;;;;5073157;28;20807;-71
2023/09/25 05:21:01;;;;;;;6.50;3.10;;;11.90;99.90;;;;;;5075629;28;20438;-71
2023/09/25 05:23:29;;;;;;;5.68;2.80;;;12.00;99.90;;;;;;5067007;28;20429;-71
2023/09/25 05:25:59;;;;;;;5.07;3.40;;;11.90;99.90;;;;;;5083386;28;20405;-75
2023/09/25 05:28:25;;;;;;;4.97;3.30;;;11.90;99.90;;;;;;5061311;28;20491;-71
2023/09/25 05:30:53;;;;;;;4.22;3.15;;;11.90;99.90;;;;;;5080180;28;20456;-71
2023/09/25 05:33:20;;;;;;;4.43;3.03;;;11.90;99.90;;;;;;5073586;28;20489;-71
2023/09/25 05:35:47;;;;;;;5.68;3.60;;;11.90;99.90;;;;;;5066193;28;20438;-71
2023/09/25 05:38:14;;;;;;;7.43;4.60;;;11.90;99.90;;;;;;5074598;28;20412;-71
2023/09/25 05:40:42;;;;;;;7.60;4.75;;;11.90;99.90;;;;;;5069179;28;20440;-71
2023/09/25 05:43:09;;;;;;;10.13;5.70;;;11.80;99.90;;;;;;5076352;28;20419;-70
2023/09/25 05:45:36;;;;;;;13.05;6.10;;;11.80;99.90;;;;;;5069556;28;20427;-71
2023/09/25 05:48:04;;;;;;;9.18;5.90;;;11.80;99.90;;;;;;5069731;28;20423;-71
2023/09/25 05:50:33;;;;;;;8.85;5.32;;;11.80;99.90;;;;;;5073044;28;20473;-71
2023/09/25 05:53:00;;;;;;;8.18;4.60;;;11.80;99.90;;;;;;5079624;28;20415;-71
2023/09/25 05:55:27;;;;;;;6.15;3.97;;;11.80;99.90;;;;;;5074527;28;20433;-70
2023/09/25 05:57:56;;;;;;;7.15;4.57;;;11.80;99.90;;;;;;5074495;28;20446;-71
2023/09/25 06:00:23;;;;;;;5.70;3.80;;;11.80;99.90;;;;;;5063946;28;21027;-72
2023/09/25 06:02:50;;;;;;;5.40;4.30;;;11.90;99.90;;;;;;5068559;28;20759;-72
2023/09/25 06:05:16;;;;;;;5.88;4.40;;;11.90;99.90;;;;;;5082320;28;20421;-71
2023/09/25 06:07:43;;;;;;;5.60;3.92;;;11.90;99.90;;;;;;5070763;28;20576;-71
2023/09/25 06:10:11;;;;;;;3.67;3.30;;;11.90;99.90;;;;;;5065543;28;20953;-72
2023/09/25 06:12:39;;;;;;;4.97;3.20;;;11.90;99.90;;;;;;5073942;28;20426;-72
2023/09/25 06:15:10;;;;;;;5.95;3.28;;;11.90;99.90;;;;;;5070690;28;20438;-72
2023/09/25 06:17:37;;;;;;;6.15;3.58;;;11.90;99.90;;;;;;5073147;28;20488;-71
2023/09/25 06:20:04;;;;;;;4.07;3.40;;;12.00;99.90;;;;;;5082086;28;20433;-71
2023/09/25 06:22:33;;;;;;;4.20;2.80;;;12.00;99.90;;;;;;5070294;28;20486;-72
2023/09/25 06:25:00;;;;;;;4.53;2.90;;;12.00;99.90;;;;;;5063760;28;20940;-71
2023/09/25 06:27:30;;;;;;;3.20;2.70;;;12.10;99.90;;;;;;5061412;28;20424;-71
2023/09/25 06:29:57;;;;;;;4.60;2.90;;;12.10;99.90;;;;;;5080930;28;20418;-71
2023/09/25 06:32:25;;;;;;;4.85;2.53;;;12.10;99.90;;;;;;5067865;28;20431;-70
2023/09/25 06:34:51;;;;;;;5.65;3.10;;;12.20;99.90;;;;;;5065056;28;20462;-71
2023/09/25 06:37:18;;;;;;;6.10;3.00;;;12.20;99.90;;;;;;5059055;28;20441;-72
2023/09/25 06:39:45;;;;;;;3.95;3.05;;;12.30;99.90;;;;;;5063422;28;20460;-72
2023/09/25 06:42:12;;;;;;;6.93;3.20;;;12.30;99.90;;;;;;5083285;28;20414;-71
2023/09/25 06:44:38;;;;;;;7.35;3.58;;;12.40;99.90;;;;;;5065932;28;20413;-71
2023/09/25 06:47:05;;;;;;;7.07;3.60;;;12.50;99.90;;;;;;5074419;28;20812;-74
2023/09/25 06:49:33;;;;;;;7.80;3.60;;;12.70;99.90;;;;;;5067361;28;20425;-72
2023/09/25 06:52:00;;;;;;;9.20;4.30;;;12.80;99.90;;;;;;5071045;28;20771;-72
2023/09/25 06:54:27;;;;;;;10.63;4.30;;;12.90;99.30;;;;;;5064171;28;20420;-72
2023/09/25 06:56:53;;;;;;;9.45;4.47;;;13.00;98.70;;;;;;5061183;28;20435;-72
2023/09/25 06:59:20;;;;;;;5.00;2.50;;;13.10;98.20;;;;;;5074415;28;20433;-72
2023/09/25 07:01:47;;;;;;;6.28;2.40;;;13.10;97.60;;;;;;5063994;28;20429;-71
2023/09/25 07:04:14;;;;;;;4.10;2.30;;;13.20;97.80;;;;;;5059931;28;20436;-72
2023/09/25 07:06:42;;;;;;;3.50;2.20;;;13.20;96.90;;;;;;5070362;28;20824;-71
2023/09/25 07:09:09;;;;;;;2.20;1.77;;;13.30;96.70;;;;;;5061153;28;20434;-72
2023/09/25 07:11:36;;;;;;;2.67;1.80;;;13.40;97.00;;;;;;5075545;28;20419;-72
2023/09/25 07:14:03;;;;;;;4.07;1.80;;;13.50;96.80;;;;;;5070036;28;20408;-71
2023/09/25 07:16:31;;;;;;;3.00;1.90;;;13.60;96.00;;;;;;5078067;28;20426;-74
2023/09/25 07:18:59;;;;;;;2.45;1.80;;;13.70;95.70;;;;;;5080230;28;20486;-72
2023/09/25 07:21:26;;;;;;;2.70;1.60;;;13.90;95.30;;;;;;5069127;28;20436;-72
2023/09/25 07:23:54;;;;;;;2.30;1.80;;;14.00;94.80;;;;;;5071432;28;20457;-72
2023/09/25 07:26:20;;;;;;;1.80;1.50;;;14.20;94.20;;;;;;5074809;28;20865;-71
2023/09/25 07:28:48;;;;;;;3.20;1.75;;;14.20;93.80;;;;;;5074276;28;20436;-72
2023/09/25 07:31:19;;;;;;;2.92;1.80;;;14.30;93.80;;;;;;5071550;28;20923;-71
2023/09/25 07:33:47;;;;;;;1.80;1.30;;;14.40;93.50;;;;;;5076752;28;20425;-72
2023/09/25 07:36:18;;;;;;;2.13;1.50;;;14.50;93.20;;;;;;5075155;28;20620;-71
2023/09/25 07:38:44;;;;;;;3.35;1.58;;;14.50;92.60;;;;;;5082752;28;20434;-71
2023/09/25 07:41:13;;;;;;;2.00;1.50;;;14.50;92.50;;;;;;5071710;28;20430;-72
2023/09/25 07:43:39;;;;;;;2.38;1.60;;;14.60;92.40;;;;;;5076831;28;20408;-72
2023/09/25 07:46:06;;;;;;;2.17;1.70;;;14.60;92.20;;;;;;5065085;28;20718;-72
2023/09/25 07:48:37;;;;;;;2.60;1.50;;;14.70;92.10;;;;;;5076830;28;20427;-71
2023/09/25 07:51:04;;;;;;;2.20;1.45;;;14.80;91.60;;;;;;5079850;28;20518;-71
2023/09/25 07:53:31;;;;;;;2.10;1.40;;;14.90;91.40;;;;;;5077786;28;20502;-71
2023/09/25 07:55:58;;;;;;;2.77;1.57;;;15.10;90.70;;;;;;5084468;28;20414;-72
2023/09/25 07:58:27;;;;;;;2.53;1.60;;;15.20;90.60;;;;;;5059947;28;20432;-73
2023/09/25 08:00:55;;;;;;;3.37;1.70;;;15.30;89.80;;;;;;5064511;28;20451;-72
2023/09/25 08:03:23;;;;;;;2.47;1.70;;;15.40;89.00;;;;;;5061196;28;20417;-72
2023/09/25 08:05:52;;;;;;;3.20;1.60;;;15.50;87.00;;;;;;5069217;28;20964;-72
2023/09/25 08:08:19;;;;;;;2.30;1.60;;;15.60;85.50;;;;;;5063053;28;20513;-71
2023/09/25 08:10:47;;;;;;;2.30;1.52;;;15.70;86.00;;;;;;5066987;28;20797;-74
2023/09/25 08:13:15;;;;;;;2.28;1.60;;;15.90;84.70;;;;;;5066160;28;20442;-73
2023/09/25 08:15:43;;;;;;;1.70;1.38;;;16.10;83.70;;;;;;5064738;28;20433;-73
2023/09/25 08:18:10;;;;;;;3.10;1.40;;;16.30;83.90;;;;;;5066418;28;20451;-73
2023/09/25 08:20:37;;;;;;;1.73;1.38;;;16.50;82.50;;;;;;5083435;28;20409;-71
2023/09/25 08:23:04;;;;;;;3.13;1.50;;;16.80;81.80;;;;;;5092730;28;20418;-72
2023/09/25 08:25:31;;;;;;;2.70;1.50;;;16.90;79.00;;;;;;5087537;28;20503;-73
2023/09/25 08:27:58;;;;;;;2.20;1.58;;;17.00;79.10;;;;;;5074400;28;20414;-74
2023/09/25 08:30:24;;;;;;;2.97;1.65;;;17.10;77.70;;;;;;5075197;28;20987;-72
2023/09/25 08:32:53;;;;;;;2.30;1.50;;;17.10;77.00;;;;;;5062225;28;20429;-74
2023/09/25 08:35:20;;;;;;;1.90;1.60;;;17.10;78.20;;;;;;5075188;28;20470;-74
2023/09/25 08:37:47;;;;;;;2.50;1.50;;;17.10;76.30;;;;;;5071077;28;20429;-73
2023/09/25 08:40:14;;;;;;;2.03;1.40;;;17.20;75.90;;;;;;5068787;28;20787;-74
2023/09/25 08:42:42;;;;;;;2.50;1.30;;;17.20;75.20;;;;;;5073413;28;20425;-72
2023/09/25 08:45:09;;;;;;;2.03;1.40;;;17.20;74.50;;;;;;5054753;28;20485;-73
2023/09/25 08:47:37;;;;;;;3.55;1.92;;;17.20;75.30;;;;;;5062069;28;20428;-74
2023/09/25 08:50:09;;;;;;;1.90;1.40;;;17.10;75.90;;;;;;5070787;28;20423;-73
2023/09/25 08:52:35;;;;;;;2.60;1.83;;;17.20;76.60;;;;;;5068323;28;20439;-71
2023/09/25 08:55:02;;;;;;;2.38;1.70;;;17.30;78.00;;;;;;5075300;28;20707;-69
2023/09/25 08:57:29;;;;;;;2.20;1.65;;;17.30;76.00;;;;;;5072041;28;20685;-69
2023/09/25 08:59:56;;;;;;;2.33;1.80;;;17.30;76.30;;;;;;5056250;28;20527;-68
2023/09/25 09:02:23;;;;;;;2.70;1.70;;;17.40;76.00;;;;;;5061209;28;20433;-68
2023/09/25 09:04:50;;;;;;;2.08;1.70;;;17.70;76.20;;;;;;5068585;28;20425;-70
2023/09/25 09:07:18;;;;;;;2.33;1.70;;;17.90;74.70;;;;;;5057615;28;20956;-68
2023/09/25 09:09:46;;;;;;;3.00;1.50;;;18.00;73.70;;;;;;5067657;28;20921;-68
2023/09/25 09:12:12;;;;;;;3.58;1.50;;;18.00;73.90;;;;;;5058201;28;20510;-71
2023/09/25 09:14:42;;;;;;;3.80;1.88;;;18.20;74.00;;;;;;5068828;28;20439;-70
2023/09/25 09:17:10;;;;;;;3.17;1.95;;;18.30;72.50;;;;;;5068011;28;20783;-68
2023/09/25 09:19:50;;;;;;;3.15;1.45;;;18.60;71.70;;;;;;5062647;28;20440;-69
2023/09/25 09:22:18;;;;;;;4.20;2.10;;;18.80;71.50;;;;;;5075875;28;20428;-69
2023/09/25 09:24:47;;;;;;;2.78;1.80;;;18.80;69.40;;;;;;5074438;28;20462;-70
2023/09/25 09:27:19;;;;;;;2.75;1.50;;;18.90;69.50;;;;;;5068706;28;20406;-70
2023/09/25 09:29:47;;;;;;;2.90;1.60;;;19.10;69.10;;;;;;5075181;28;20429;-69
2023/09/25 09:32:14;;;;;;;2.90;1.65;;;19.10;66.90;;;;;;5062692;28;20432;-69
2023/09/25 09:34:41;;;;;;;2.60;1.40;;;19.00;67.10;;;;;;5060383;28;20850;-70
2023/09/25 09:37:09;;;;;;;2.28;1.42;;;19.10;67.70;;;;;;5060912;28;20438;-70
2023/09/25 09:39:38;;;;;;;2.25;1.40;;;19.30;67.80;;;;;;5072853;28;20423;-70
2023/09/25 09:42:08;;;;;;;2.60;1.50;;;19.40;66.40;;;;;;5076726;28;20410;-70
2023/09/25 09:44:35;;;;;;;2.60;1.50;;;19.70;65.70;;;;;;5071616;28;20465;-69
2023/09/25 09:47:04;;;;;;;2.80;1.40;;;19.70;64.60;;;;;;5079895;28;20413;-71
2023/09/25 09:49:33;;;;;;;2.70;1.60;;;19.60;64.10;;;;;;5073955;28;20415;-71
2023/09/25 09:52:01;;;;;;;3.15;1.30;;;19.70;64.10;;;;;;5074689;28;20479;-70
2023/09/25 09:54:32;;;;;;;2.60;1.50;;;19.70;63.60;;;;;;5068214;28;20431;-67
2023/09/25 09:57:00;;;;;;;3.10;1.40;;;19.80;61.80;;;;;;5080855;28;20430;-70
2023/09/25 09:59:27;;;;;;;2.88;1.40;;;19.90;63.00;;;;;;5086691;28;20427;-69
2023/09/25 10:01:55;;;;;;;2.00;1.50;;;20.00;62.30;;;;;;5075172;28;20435;-71
2023/09/25 10:04:22;;;;;;;2.40;1.30;;;20.00;61.60;;;;;;5080600;28;20430;-70
2023/09/25 10:06:51;;;;;;;1.70;1.25;;;20.10;62.00;;;;;;5088846;28;20420;-70
2023/09/25 10:09:19;;;;;;;2.47;1.30;;;20.40;60.60;;;;;;5086409;28;20426;-72
2023/09/25 10:11:48;;;;;;;2.75;1.50;;;20.50;58.90;;;;;;5073276;28;20783;-70
2023/09/25 10:14:21;;;;;;;2.45;1.58;;;20.60;59.00;;;;;;5063448;28;20427;-68
2023/09/25 10:17:01;;;;;;;2.28;1.30;;;20.80;58.60;;;;;;5062279;28;20431;-71
2023/09/25 10:19:48;;;;;;;2.08;1.40;;;20.80;57.00;;;;;;5073586;28;20439;-69
2023/09/25 10:22:20;;;;;;;2.22;1.25;;;21.00;56.90;;;;;;5077790;28;20443;-70
2023/09/25 10:24:49;;;;;;;3.60;1.80;;;21.10;53.40;;;;;;5071068;28;20435;-69
2023/09/25 10:27:18;;;;;;;2.80;1.37;;;21.20;54.30;;;;;;5064043;28;20458;-71
2023/09/25 10:30:11;;;;;;;1.70;1.20;;;21.40;53.80;;;;;;5076633;28;20433;-71
2023/09/25 10:32:40;;;;;;;2.20;1.50;;;21.50;54.00;;;;;;5056818;28;20445;-69
2023/09/25 10:35:39;;;;;;;1.70;1.30;;;21.50;52.60;;;;;;5069581;28;20415;-72
2023/09/25 10:38:13;;;;;;;2.50;1.20;;;21.60;52.30;;;;;;5068299;28;20453;-69
2023/09/25 10:40:43;;;;;;;2.47;1.48;;;21.80;52.30;;;;;;5076519;28;20410;-70
2023/09/25 10:43:10;;;;;;;3.00;1.38;;;21.90;51.10;;;;;;5077977;28;20537;-72
2023/09/25 10:45:38;;;;;;;2.88;1.48;;;22.00;48.70;;;;;;5069165;28;20406;-71
2023/09/25 10:48:07;;;;;;;4.00;1.70;;;22.00;47.70;;;;;;5060247;28;20420;-70
2023/09/25 10:50:34;;;;;;;2.60;1.50;;;22.00;48.40;;;;;;5068443;28;20430;-72
2023/09/25 10:53:00;;;;;;;2.38;1.20;;;22.00;46.90;;;;;;5077439;28;20412;-72
2023/09/25 10:55:27;;;;;;;1.85;1.15;;;22.00;45.20;;;;;;5078378;28;20654;-72
2023/09/25 10:57:54;;;;;;;2.10;1.30;;;21.90;43.90;;;;;;5083609;28;20433;-71
2023/09/25 11:00:22;;;;;;;1.92;1.10;;;21.90;44.90;;;;;;5062913;28;20444;-71
2023/09/25 11:02:51;;;;;;;1.80;1.10;;;21.90;44.50;;;;;;5059142;28;20457;-70
2023/09/25 11:05:18;;;;;;;1.60;1.25;;;21.90;43.40;;;;;;5075124;28;20421;-70
2023/09/25 11:07:46;;;;;;;1.80;1.10;;;21.90;44.10;;;;;;5066566;28;20412;-72
2023/09/25 11:10:13;;;;;;;1.70;1.10;;;22.00;44.30;;;;;;5074805;28;20422;-69
2023/09/25 11:12:40;;;;;;;2.78;1.20;;;22.20;43.30;;;;;;5071562;28;20548;-70
2023/09/25 11:15:11;;;;;;;1.90;1.10;;;22.30;42.10;;;;;;5068936;28;20439;-70
2023/09/25 11:17:38;;;;;;;1.50;1.10;;;22.70;42.40;;;;;;5077330;28;21184;-71
2023/09/25 11:20:12;;;;;;;2.00;1.30;;;23.00;41.50;;;;;;5088117;28;20412;-71
2023/09/25 11:22:39;;;;;;;1.75;1.23;;;22.90;40.20;;;;;;5076426;28;20960;-72
2023/09/25 11:25:12;;;;;;;2.20;1.20;;;22.80;39.30;;;;;;5085765;28;20413;-71
2023/09/25 11:27:39;;;;;;;1.50;1.17;;;22.80;39.50;;;;;;5075060;28;20458;-72
2023/09/25 11:30:11;;;;;;;1.58;1.00;;;22.80;39.80;;;;;;5073194;28;20442;-70
2023/09/25 11:32:39;;;;;;;1.45;0.90;;;22.80;39.20;;;;;;5076578;28;20490;-70
2023/09/25 11:35:12;;;;;;;1.77;1.20;;;22.90;39.50;;;;;;5055871;28;20431;-71
2023/09/25 11:37:53;;;;;;;1.65;1.00;;;22.80;40.20;;;;;;5070798;28;20432;-71
2023/09/25 11:40:20;;;;;;;2.20;1.30;;;22.80;39.40;;;;;;5065702;28;20423;-71
2023/09/25 11:42:47;;;;;;;2.42;1.23;;;22.80;39.10;;;;;;5075599;28;20436;-70
2023/09/25 11:45:15;;;;;;;1.70;1.20;;;22.90;39.60;;;;;;5071150;28;20510;-71
2023/09/25 11:47:42;;;;;;;2.60;1.50;;;23.20;39.50;;;;;;5069262;28;20508;-71
2023/09/25 11:50:13;;;;;;;3.00;1.50;;;23.40;39.80;;;;;;5074519;28;20888;-67
2023/09/25 11:52:40;;;;;;;4.05;2.75;;;23.60;38.90;;;;;;5074251;28;20641;-70
2023/09/25 11:55:09;;;;;;;3.38;3.03;;;23.60;38.40;;;;;;5068383;28;20941;-68
2023/09/25 11:57:36;;;;;;;5.63;3.78;;;23.70;38.10;;;;;;5063138;28;20438;-71
2023/09/25 12:00:04;;;;;;;17.42;16.00;;;23.90;38.90;;;;;;5073706;28;20435;-69
2023/09/25 12:02:31;;;;;;;2.28;1.42;;;24.00;37.60;;;;;;5062090;28;20892;-70
2023/09/25 12:04:58;;;;;;;3.13;2.55;;;24.00;37.00;;;;;;5059856;28;20409;-71
2023/09/25 12:07:27;;;;;;;2.10;1.20;;;24.00;38.80;;;;;;5081228;28;20423;-70
2023/09/25 12:09:54;;;;;;;2.22;1.10;;;23.90;37.60;;;;;;5073363;28;20425;-70
2023/09/25 12:12:21;;;;;;;1.90;1.27;;;23.90;37.50;;;;;;5084376;28;20518;-70
2023/09/25 12:14:47;;;;;;;1.60;1.00;;;24.00;38.40;;;;;;5068025;28;20502;-70
2023/09/25 12:17:16;;;;;;;2.10;1.02;;;24.20;37.30;;;;;;5090479;28;20438;-71
2023/09/25 12:19:43;;;;;;;2.13;1.02;;;24.30;37.40;;;;;;5087961;28;21053;-72
2023/09/25 12:22:09;;;;;;;2.15;1.20;;;24.40;36.80;;;;;;5066517;28;20930;-72
2023/09/25 12:24:38;;;;;;;1.33;0.98;;;24.40;37.30;;;;;;5081389;28;20407;-72
2023/09/25 12:27:05;;;;;;;2.30;1.10;;;24.50;36.70;;;;;;5074493;28;20439;-71
2023/09/25 12:29:32;;;;;;;1.60;1.10;;;24.30;36.30;;;;;;5078871;28;20841;-73
2023/09/25 12:31:59;;;;;;;1.90;1.20;;;24.40;37.20;;;;;;5081761;28;20426;-71
2023/09/25 12:34:26;;;;;;;2.70;1.20;;;24.70;36.50;;;;;;5087850;28;20431;-74
2023/09/25 12:36:53;;;;;;;3.40;1.40;;;24.60;35.70;;;;;;5075993;28;20440;-73
2023/09/25 12:39:20;;;;;;;2.37;1.30;;;24.50;36.30;;;;;;5066817;28;20426;-74
2023/09/25 12:41:48;;;;;;;1.50;1.03;;;24.50;36.70;;;;;;5058180;28;20919;-70
2023/09/25 12:44:15;;;;;;;2.00;1.00;;;24.50;36.90;;;;;;5063996;28;20435;-70
2023/09/25 12:46:42;;;;;;;2.30;1.20;;;24.60;36.70;;;;;;5063084;28;20439;-74
2023/09/25 12:49:09;;;;;;;1.30;1.00;;;24.60;36.70;;;;;;5059655;28;20931;-74